createdAt,value
2018-02-25T00:00:03.575Z,0
2018-02-25T00:01:04.971Z,0
2018-02-25T00:02:06.355Z,0
2018-02-25T00:03:07.797Z,0
2018-02-25T00:04:09.240Z,0
2018-02-25T00:05:10.625Z,0
2018-02-25T00:06:12.012Z,0
2018-02-25T00:07:13.396Z,0
2018-02-25T00:08:14.781Z,0
2018-02-25T00:09:16.166Z,0
2018-02-25T00:10:17.551Z,0
2018-02-25T00:11:18.939Z,0
2018-02-25T00:12:20.323Z,0
2018-02-25T00:13:21.710Z,0
2018-02-25T00:14:23.093Z,0
2018-02-25T00:15:24.476Z,0
2018-02-25T00:16:25.864Z,0
2018-02-25T00:17:27.253Z,0
2018-02-25T00:18:28.638Z,0
2018-02-25T00:19:30.022Z,0
2018-02-25T00:20:31.414Z,0
2018-02-25T00:21:32.791Z,0
2018-02-25T00:22:34.197Z,0
2018-02-25T00:23:35.583Z,0
2018-02-25T00:24:36.973Z,0
2018-02-25T00:25:38.359Z,0
2018-02-25T00:26:39.770Z,0
2018-02-25T00:27:41.152Z,0
2018-02-25T00:28:42.540Z,0
2018-02-25T00:29:43.926Z,0
2018-02-25T00:30:45.311Z,0
2018-02-25T00:31:46.699Z,0
2018-02-25T00:32:48.086Z,0
2018-02-25T00:33:49.480Z,0
2018-02-25T00:34:50.874Z,0
2018-02-25T00:35:52.270Z,0
2018-02-25T00:36:53.659Z,0
2018-02-25T00:37:55.042Z,0
2018-02-25T00:38:56.430Z,0
2018-02-25T00:39:57.819Z,0
2018-02-25T00:40:59.202Z,0
2018-02-25T00:42:00.588Z,0
2018-02-25T00:43:01.974Z,0
2018-02-25T00:44:03.355Z,0
2018-02-25T00:45:04.742Z,0
2018-02-25T00:46:06.126Z,0
2018-02-25T00:47:07.516Z,0
2018-02-25T00:48:08.900Z,0
2018-02-25T00:49:10.287Z,0
2018-02-25T00:50:11.676Z,0
2018-02-25T00:51:13.060Z,0
2018-02-25T00:52:14.447Z,0
2018-02-25T00:53:15.855Z,0
2018-02-25T00:54:17.256Z,0
2018-02-25T00:55:18.640Z,0
2018-02-25T00:56:20.027Z,0
2018-02-25T00:57:21.412Z,0
2018-02-25T00:58:22.793Z,0
2018-02-25T00:59:24.181Z,0
2018-02-25T01:00:25.571Z,0
2018-02-25T01:01:26.955Z,0
2018-02-25T01:02:28.336Z,0
2018-02-25T01:03:29.723Z,0
2018-02-25T01:04:31.101Z,0
2018-02-25T01:05:32.485Z,0
2018-02-25T01:06:33.875Z,0
2018-02-25T01:07:35.257Z,0
2018-02-25T01:08:36.647Z,0
2018-02-25T01:09:38.029Z,0
2018-02-25T01:10:39.414Z,0
2018-02-25T01:11:40.805Z,0
2018-02-25T01:12:42.189Z,0
2018-02-25T01:13:43.583Z,0
2018-02-25T01:14:44.973Z,0
2018-02-25T01:15:46.359Z,0
2018-02-25T01:16:47.745Z,0
2018-02-25T01:17:49.130Z,0
2018-02-25T01:18:50.514Z,0
2018-02-25T01:19:51.899Z,0
2018-02-25T01:20:53.286Z,0
2018-02-25T01:21:54.673Z,0
2018-02-25T01:22:56.059Z,0
2018-02-25T01:23:57.441Z,0
2018-02-25T01:24:58.826Z,0
2018-02-25T01:26:00.209Z,0
2018-02-25T01:27:01.593Z,0
2018-02-25T01:28:02.980Z,0
2018-02-25T01:29:04.363Z,0
2018-02-25T01:30:05.752Z,0
2018-02-25T01:31:07.134Z,0
2018-02-25T01:32:08.520Z,0
2018-02-25T01:33:09.906Z,0
2018-02-25T01:34:11.292Z,0
2018-02-25T01:35:12.681Z,0
2018-02-25T01:36:14.067Z,0
2018-02-25T01:37:15.453Z,0
2018-02-25T01:38:16.839Z,0
2018-02-25T01:39:18.222Z,0
2018-02-25T01:40:19.611Z,0
2018-02-25T01:41:21.003Z,0
2018-02-25T01:42:22.388Z,0
2018-02-25T01:43:23.776Z,0
2018-02-25T01:44:25.230Z,0
2018-02-25T01:45:26.628Z,0
2018-02-25T01:46:28.014Z,0
2018-02-25T01:47:29.394Z,0
2018-02-25T01:48:30.775Z,0
2018-02-25T01:49:32.161Z,0
2018-02-25T01:50:33.549Z,0
2018-02-25T01:51:34.933Z,0
2018-02-25T01:52:36.319Z,0
2018-02-25T01:53:37.708Z,0
2018-02-25T01:54:39.092Z,0
2018-02-25T01:55:40.473Z,0
2018-02-25T01:56:41.857Z,0
2018-02-25T01:57:43.244Z,0
2018-02-25T01:58:44.655Z,0
2018-02-25T01:59:46.035Z,0
2018-02-25T02:00:47.421Z,0
2018-02-25T02:01:48.803Z,0
2018-02-25T02:02:50.192Z,0
2018-02-25T02:03:51.580Z,0
2018-02-25T02:04:52.969Z,0
2018-02-25T02:05:54.355Z,0
2018-02-25T02:06:55.739Z,0
2018-02-25T02:07:57.128Z,0
2018-02-25T02:08:58.520Z,0
2018-02-25T02:09:59.901Z,0
2018-02-25T02:11:01.286Z,0
2018-02-25T02:12:02.675Z,0
2018-02-25T02:13:04.063Z,0
2018-02-25T02:14:05.462Z,0
2018-02-25T02:15:06.850Z,0
2018-02-25T02:16:08.233Z,0
2018-02-25T02:17:09.614Z,0
2018-02-25T02:18:10.999Z,0
2018-02-25T02:19:12.388Z,0
2018-02-25T02:20:13.774Z,0
2018-02-25T02:21:15.155Z,0
2018-02-25T02:22:16.540Z,0
2018-02-25T02:23:17.924Z,0
2018-02-25T02:24:19.308Z,0
2018-02-25T02:25:20.698Z,0
2018-02-25T02:26:22.083Z,0
2018-02-25T02:27:23.472Z,0
2018-02-25T02:28:24.856Z,0
2018-02-25T02:29:26.240Z,0
2018-02-25T02:30:27.623Z,0
2018-02-25T02:31:29.009Z,0
2018-02-25T02:32:30.392Z,0
2018-02-25T02:33:31.780Z,0
2018-02-25T02:34:33.165Z,0
2018-02-25T02:35:34.566Z,0
2018-02-25T02:36:36.028Z,0
2018-02-25T02:37:37.421Z,0
2018-02-25T02:38:38.806Z,0
2018-02-25T02:39:40.187Z,0
2018-02-25T02:40:41.575Z,0
2018-02-25T02:41:42.962Z,0
2018-02-25T02:42:44.343Z,0
2018-02-25T02:43:45.728Z,0
2018-02-25T02:44:47.137Z,0
2018-02-25T02:45:48.520Z,0
2018-02-25T02:46:49.945Z,0
2018-02-25T02:47:51.334Z,0
2018-02-25T02:48:52.719Z,0
2018-02-25T02:49:54.104Z,0
2018-02-25T02:50:55.490Z,0
2018-02-25T02:51:56.870Z,0
2018-02-25T02:52:58.256Z,0
2018-02-25T02:53:59.641Z,0
2018-02-25T02:55:01.027Z,0
2018-02-25T02:56:02.414Z,0
2018-02-25T02:57:03.792Z,0
2018-02-25T02:58:05.175Z,0
2018-02-25T02:59:06.560Z,0
2018-02-25T03:00:07.944Z,0
2018-02-25T03:01:09.331Z,0
2018-02-25T03:02:10.714Z,0
2018-02-25T03:03:12.102Z,0
2018-02-25T03:04:13.486Z,0
2018-02-25T03:05:14.872Z,0
2018-02-25T03:06:16.259Z,0
2018-02-25T03:07:17.640Z,0
2018-02-25T03:08:19.028Z,0
2018-02-25T03:09:20.410Z,0
2018-02-25T03:10:21.804Z,0
2018-02-25T03:11:23.184Z,0
2018-02-25T03:12:24.576Z,0
2018-02-25T03:13:25.951Z,0
2018-02-25T03:14:27.334Z,0
2018-02-25T03:15:28.720Z,0
2018-02-25T03:16:30.108Z,0
2018-02-25T03:17:31.494Z,0
2018-02-25T03:18:32.873Z,0
2018-02-25T03:19:34.256Z,0
2018-02-25T03:20:35.637Z,0
2018-02-25T03:21:37.026Z,0
2018-02-25T03:22:38.417Z,0
2018-02-25T03:23:39.802Z,0
2018-02-25T03:24:41.188Z,0
2018-02-25T03:25:42.598Z,0
2018-02-25T03:26:44.066Z,0
2018-02-25T03:27:45.433Z,0
2018-02-25T03:28:46.832Z,0
2018-02-25T03:29:48.213Z,0
2018-02-25T03:30:49.599Z,0
2018-02-25T03:31:51.035Z,0
2018-02-25T03:32:52.401Z,0
2018-02-25T03:33:53.786Z,0
2018-02-25T03:34:55.202Z,0
2018-02-25T03:35:56.577Z,0
2018-02-25T03:36:57.968Z,0
2018-02-25T03:37:59.356Z,0
2018-02-25T03:39:00.739Z,0
2018-02-25T03:40:02.147Z,0
2018-02-25T03:41:03.522Z,0
2018-02-25T03:42:04.906Z,0
2018-02-25T03:43:06.290Z,0
2018-02-25T03:44:07.677Z,0
2018-02-25T03:45:09.061Z,0
2018-02-25T03:46:10.447Z,0
2018-02-25T03:47:11.839Z,0
2018-02-25T03:48:13.230Z,0
2018-02-25T03:49:14.615Z,0
2018-02-25T03:50:16.002Z,0
2018-02-25T03:51:17.406Z,0
2018-02-25T03:52:18.791Z,0
2018-02-25T03:53:20.180Z,0
2018-02-25T03:54:21.562Z,0
2018-02-25T03:55:22.948Z,0
2018-02-25T03:56:24.332Z,0
2018-02-25T03:57:25.717Z,0
2018-02-25T03:58:27.102Z,0
2018-02-25T03:59:28.487Z,0
2018-02-25T04:00:29.870Z,0
2018-02-25T04:01:31.250Z,0
2018-02-25T04:02:32.636Z,0
2018-02-25T04:03:34.027Z,0
2018-02-25T04:04:35.407Z,0
2018-02-25T04:05:36.790Z,0
2018-02-25T04:06:38.180Z,0
2018-02-25T04:07:39.563Z,0
2018-02-25T04:08:40.948Z,0
2018-02-25T04:09:42.332Z,0
2018-02-25T04:10:43.716Z,0
2018-02-25T04:11:45.100Z,0
2018-02-25T04:12:46.489Z,0
2018-02-25T04:13:47.876Z,0
2018-02-25T04:14:49.264Z,0
2018-02-25T04:15:50.649Z,0
2018-02-25T04:16:52.030Z,0
2018-02-25T04:17:53.413Z,0
2018-02-25T04:18:54.863Z,0
2018-02-25T04:19:56.251Z,0
2018-02-25T04:20:57.637Z,0
2018-02-25T04:21:59.027Z,0
2018-02-25T04:23:00.426Z,0
2018-02-25T04:24:01.806Z,0
2018-02-25T04:25:03.196Z,0
2018-02-25T04:26:04.582Z,0
2018-02-25T04:27:05.974Z,0
2018-02-25T04:28:07.361Z,0
2018-02-25T04:29:08.742Z,0
2018-02-25T04:30:10.125Z,0
2018-02-25T04:31:11.509Z,0
2018-02-25T04:32:12.897Z,0
2018-02-25T04:33:14.281Z,0
2018-02-25T04:34:15.665Z,0
2018-02-25T04:35:17.057Z,0
2018-02-25T04:36:18.435Z,0
2018-02-25T04:37:19.816Z,0
2018-02-25T04:38:21.200Z,0
2018-02-25T04:39:22.584Z,0
2018-02-25T04:40:23.969Z,0
2018-02-25T04:41:25.352Z,0
2018-02-25T04:42:26.739Z,0
2018-02-25T04:43:28.126Z,0
2018-02-25T04:44:29.509Z,0
2018-02-25T04:45:30.891Z,0
2018-02-25T04:46:32.277Z,0
2018-02-25T04:47:33.671Z,0
2018-02-25T04:48:35.054Z,0
2018-02-25T04:49:36.441Z,0
2018-02-25T04:50:37.827Z,0
2018-02-25T04:51:39.211Z,0
2018-02-25T04:52:40.594Z,0
2018-02-25T04:53:41.978Z,0
2018-02-25T04:54:43.364Z,0
2018-02-25T04:55:44.742Z,0
2018-02-25T04:56:46.147Z,0
2018-02-25T04:57:47.530Z,0
2018-02-25T04:58:48.915Z,0
2018-02-25T04:59:50.300Z,0
2018-02-25T05:00:51.674Z,0
2018-02-25T05:01:53.059Z,0
2018-02-25T05:02:54.443Z,0
2018-02-25T05:03:55.827Z,0
2018-02-25T05:04:57.209Z,0
2018-02-25T05:05:58.595Z,0
2018-02-25T05:06:59.980Z,0
2018-02-25T05:08:01.366Z,0
2018-02-25T05:09:02.748Z,0
2018-02-25T05:10:04.281Z,0
2018-02-25T05:11:05.666Z,0
2018-02-25T05:12:07.055Z,0
2018-02-25T05:13:08.436Z,0
2018-02-25T05:14:09.819Z,0
2018-02-25T05:15:11.205Z,0
2018-02-25T05:16:12.608Z,0
2018-02-25T05:17:13.995Z,0
2018-02-25T05:18:15.380Z,0
2018-02-25T05:19:16.766Z,0
2018-02-25T05:20:18.147Z,0
2018-02-25T05:21:19.532Z,0
2018-02-25T05:22:20.913Z,0
2018-02-25T05:23:22.295Z,0
2018-02-25T05:24:23.686Z,0
2018-02-25T05:25:25.070Z,0
2018-02-25T05:26:26.457Z,0
2018-02-25T05:27:27.863Z,0
2018-02-25T05:28:29.222Z,0
2018-02-25T05:29:30.604Z,0
2018-02-25T05:30:31.989Z,0
2018-02-25T05:31:33.386Z,0
2018-02-25T05:32:34.769Z,0
2018-02-25T05:33:36.162Z,0
2018-02-25T05:34:37.542Z,0
2018-02-25T05:35:38.922Z,0
2018-02-25T05:36:40.307Z,0
2018-02-25T05:37:41.718Z,0
2018-02-25T05:38:43.103Z,0
2018-02-25T05:39:44.487Z,0
2018-02-25T05:40:45.871Z,0
2018-02-25T05:41:47.254Z,0
2018-02-25T05:42:48.635Z,0
2018-02-25T05:43:50.019Z,0
2018-02-25T05:44:51.407Z,0
2018-02-25T05:45:52.787Z,0
2018-02-25T05:46:54.169Z,0
2018-02-25T05:47:55.553Z,0
2018-02-25T05:48:56.937Z,0
2018-02-25T05:49:58.323Z,0
2018-02-25T05:50:59.704Z,0
2018-02-25T05:52:01.088Z,0
2018-02-25T05:53:02.489Z,0
2018-02-25T05:54:03.876Z,0
2018-02-25T05:55:05.264Z,0
2018-02-25T05:56:06.648Z,0
2018-02-25T05:57:08.037Z,0
2018-02-25T05:58:09.421Z,0
2018-02-25T05:59:10.802Z,4
2018-02-25T06:00:12.192Z,0
2018-02-25T06:01:13.601Z,0
2018-02-25T06:02:15.048Z,0
2018-02-25T06:03:16.437Z,4
2018-02-25T06:04:17.818Z,0
2018-02-25T06:05:19.201Z,4
2018-02-25T06:06:20.587Z,4
2018-02-25T06:07:21.967Z,4
2018-02-25T06:08:23.359Z,4
2018-02-25T06:09:24.744Z,8
2018-02-25T06:10:26.126Z,8
2018-02-25T06:11:27.510Z,8
2018-02-25T06:12:28.899Z,8
2018-02-25T06:13:30.289Z,8
2018-02-25T06:14:31.672Z,12
2018-02-25T06:15:33.065Z,16
2018-02-25T06:16:34.452Z,16
2018-02-25T06:17:35.841Z,20
2018-02-25T06:18:37.228Z,24
2018-02-25T06:19:38.612Z,28
2018-02-25T06:20:39.995Z,32
2018-02-25T06:21:41.387Z,32
2018-02-25T06:22:42.775Z,36
2018-02-25T06:23:44.166Z,44
2018-02-25T06:24:45.585Z,44
2018-02-25T06:25:46.968Z,52
2018-02-25T06:26:48.371Z,60
2018-02-25T06:27:49.758Z,64
2018-02-25T06:28:51.140Z,72
2018-02-25T06:29:52.528Z,80
2018-02-25T06:30:53.916Z,84
2018-02-25T06:31:55.296Z,96
2018-02-25T06:32:56.681Z,100
2018-02-25T06:33:58.067Z,112
2018-02-25T06:34:59.453Z,120
2018-02-25T06:36:00.839Z,128
2018-02-25T06:37:02.226Z,140
2018-02-25T06:38:03.612Z,148
2018-02-25T06:39:05.002Z,160
2018-02-25T06:40:06.381Z,168
2018-02-25T06:41:07.810Z,180
2018-02-25T06:42:09.151Z,192
2018-02-25T06:43:10.537Z,200
2018-02-25T06:44:11.928Z,212
2018-02-25T06:45:13.314Z,224
2018-02-25T06:46:14.699Z,232
2018-02-25T06:47:16.085Z,244
2018-02-25T06:48:17.470Z,256
2018-02-25T06:49:18.859Z,268
2018-02-25T06:50:20.249Z,276
2018-02-25T06:51:21.639Z,288
2018-02-25T06:52:23.030Z,300
2018-02-25T06:53:24.500Z,312
2018-02-25T06:54:25.886Z,328
2018-02-25T06:55:27.274Z,336
2018-02-25T06:56:28.659Z,348
2018-02-25T06:57:30.048Z,360
2018-02-25T06:58:31.439Z,368
2018-02-25T06:59:32.826Z,384
2018-02-25T07:00:34.211Z,388
2018-02-25T07:01:35.597Z,404
2018-02-25T07:02:36.984Z,416
2018-02-25T07:03:38.374Z,424
2018-02-25T07:04:39.760Z,432
2018-02-25T07:05:41.149Z,444
2018-02-25T07:06:42.536Z,456
2018-02-25T07:07:43.925Z,464
2018-02-25T07:08:45.308Z,472
2018-02-25T07:09:46.699Z,484
2018-02-25T07:10:48.087Z,492
2018-02-25T07:11:49.475Z,504
2018-02-25T07:12:50.869Z,512
2018-02-25T07:13:52.262Z,520
2018-02-25T07:14:53.648Z,532
2018-02-25T07:15:55.033Z,544
2018-02-25T07:16:56.419Z,552
2018-02-25T07:17:57.803Z,560
2018-02-25T07:18:59.194Z,572
2018-02-25T07:20:00.584Z,580
2018-02-25T07:21:01.972Z,588
2018-02-25T07:22:03.382Z,600
2018-02-25T07:23:04.751Z,608
2018-02-25T07:24:06.134Z,616
2018-02-25T07:25:07.525Z,624
2018-02-25T07:26:08.925Z,636
2018-02-25T07:27:10.302Z,640
2018-02-25T07:28:11.687Z,652
2018-02-25T07:29:13.105Z,656
2018-02-25T07:30:14.495Z,668
2018-02-25T07:31:15.877Z,680
2018-02-25T07:32:17.265Z,684
2018-02-25T07:33:18.652Z,696
2018-02-25T07:34:20.045Z,704
2018-02-25T07:35:21.434Z,708
2018-02-25T07:36:22.822Z,716
2018-02-25T07:37:24.207Z,728
2018-02-25T07:38:25.595Z,736
2018-02-25T07:39:26.989Z,744
2018-02-25T07:40:28.376Z,748
2018-02-25T07:41:29.765Z,756
2018-02-25T07:42:31.232Z,768
2018-02-25T07:43:32.544Z,772
2018-02-25T07:44:33.958Z,784
2018-02-25T07:45:35.346Z,788
2018-02-25T07:46:36.736Z,796
2018-02-25T07:47:38.123Z,808
2018-02-25T07:48:39.534Z,812
2018-02-25T07:49:40.921Z,828
2018-02-25T07:50:42.311Z,836
2018-02-25T07:51:43.695Z,848
2018-02-25T07:52:45.088Z,852
2018-02-25T07:53:46.472Z,864
2018-02-25T07:54:47.863Z,868
2018-02-25T07:55:49.250Z,884
2018-02-25T07:56:50.636Z,892
2018-02-25T07:57:52.028Z,904
2018-02-25T07:58:53.418Z,912
2018-02-25T07:59:54.802Z,916
2018-02-25T08:00:56.191Z,928
2018-02-25T08:01:57.581Z,932
2018-02-25T08:02:58.975Z,944
2018-02-25T08:04:00.355Z,952
2018-02-25T08:05:01.740Z,960
2018-02-25T08:06:03.150Z,968
2018-02-25T08:07:04.538Z,972
2018-02-25T08:08:05.926Z,984
2018-02-25T08:09:07.323Z,992
2018-02-25T08:10:08.712Z,1000
2018-02-25T08:11:10.105Z,1008
2018-02-25T08:12:11.492Z,1020
2018-02-25T08:13:12.898Z,1020
2018-02-25T08:14:14.285Z,1032
2018-02-25T08:15:15.679Z,1040
2018-02-25T08:16:17.071Z,1048
2018-02-25T08:17:18.463Z,1052
2018-02-25T08:18:19.851Z,1064
2018-02-25T08:19:21.240Z,1068
2018-02-25T08:20:22.632Z,1068
2018-02-25T08:21:24.016Z,1076
2018-02-25T08:22:25.404Z,1088
2018-02-25T08:23:26.796Z,1100
2018-02-25T08:24:28.187Z,1100
2018-02-25T08:25:29.578Z,1116
2018-02-25T08:26:30.966Z,1124
2018-02-25T08:27:32.353Z,1128
2018-02-25T08:28:33.744Z,1136
2018-02-25T08:29:35.145Z,1148
2018-02-25T08:30:36.532Z,1160
2018-02-25T08:31:37.916Z,1172
2018-02-25T08:32:39.316Z,1176
2018-02-25T08:33:40.700Z,1196
2018-02-25T08:34:42.086Z,1208
2018-02-25T08:35:43.600Z,1220
2018-02-25T08:36:45.027Z,1232
2018-02-25T08:37:46.396Z,1244
2018-02-25T08:38:47.786Z,1260
2018-02-25T08:39:49.205Z,1276
2018-02-25T08:40:50.589Z,1292
2018-02-25T08:41:51.979Z,1312
2018-02-25T08:42:53.366Z,1328
2018-02-25T08:43:54.756Z,1340
2018-02-25T08:44:56.147Z,1360
2018-02-25T08:45:57.554Z,1380
2018-02-25T08:46:58.942Z,1404
2018-02-25T08:48:00.326Z,1428
2018-02-25T08:49:01.721Z,1448
2018-02-25T08:50:03.109Z,1476
2018-02-25T08:51:04.500Z,1508
2018-02-25T08:52:05.887Z,1524
2018-02-25T08:53:07.280Z,1548
2018-02-25T08:54:08.670Z,1572
2018-02-25T08:55:10.058Z,1616
2018-02-25T08:56:11.446Z,1648
2018-02-25T08:57:12.838Z,1684
2018-02-25T08:58:14.229Z,1744
2018-02-25T08:59:15.618Z,1792
2018-02-25T09:00:17.009Z,1860
2018-02-25T09:01:18.400Z,1928
2018-02-25T09:02:19.791Z,1988
2018-02-25T09:03:21.175Z,2064
2018-02-25T09:04:22.566Z,2152
2018-02-25T09:05:23.956Z,2232
2018-02-25T09:06:25.348Z,2308
2018-02-25T09:07:26.743Z,2380
2018-02-25T09:08:28.204Z,2456
2018-02-25T09:09:29.605Z,2548
2018-02-25T09:10:30.998Z,2636
2018-02-25T09:11:32.388Z,2776
2018-02-25T09:12:33.999Z,2860
2018-02-25T09:13:35.336Z,2976
2018-02-25T09:14:36.724Z,3072
2018-02-25T09:15:38.120Z,3176
2018-02-25T09:16:39.503Z,3304
2018-02-25T09:17:40.890Z,3400
2018-02-25T09:18:42.275Z,3528
2018-02-25T09:19:43.669Z,3620
2018-02-25T09:20:45.065Z,3748
2018-02-25T09:21:46.454Z,3860
2018-02-25T09:22:47.839Z,3928
2018-02-25T09:23:49.227Z,4012
2018-02-25T09:24:50.631Z,4096
2018-02-25T09:25:52.062Z,4152
2018-02-25T09:26:53.461Z,4204
2018-02-25T09:27:54.853Z,4252
2018-02-25T09:28:56.405Z,4316
2018-02-25T09:29:57.880Z,4344
2018-02-25T09:30:59.262Z,4420
2018-02-25T09:32:00.860Z,4480
2018-02-25T09:33:02.250Z,4536
2018-02-25T09:34:03.630Z,4620
2018-02-25T09:35:05.123Z,4680
2018-02-25T09:36:06.930Z,4728
2018-02-25T09:37:08.326Z,4804
2018-02-25T09:38:09.712Z,4888
2018-02-25T09:39:11.190Z,4964
2018-02-25T09:40:12.881Z,5032
2018-02-25T09:41:14.268Z,5132
2018-02-25T09:42:15.655Z,5208
2018-02-25T09:43:17.044Z,5320
2018-02-25T09:44:18.521Z,5456
2018-02-25T09:45:19.904Z,5628
2018-02-25T09:46:21.304Z,7244
2018-02-25T09:47:22.705Z,20608
2018-02-25T09:48:24.092Z,34432
2018-02-25T09:49:25.517Z,35712
2018-02-25T09:50:26.878Z,33888
2018-02-25T09:51:28.266Z,34560
2018-02-25T09:52:29.652Z,37184
2018-02-25T09:53:31.042Z,37920
2018-02-25T09:54:32.790Z,37408
2018-02-25T09:55:34.179Z,36960
2018-02-25T09:56:35.570Z,36448
2018-02-25T09:57:37.001Z,38688
2018-02-25T09:58:38.396Z,39936
2018-02-25T09:59:39.851Z,39680
2018-02-25T10:00:41.212Z,39520
2018-02-25T10:01:42.866Z,38432
2018-02-25T10:02:44.318Z,39648
2018-02-25T10:03:45.702Z,39392
2018-02-25T10:04:47.098Z,35136
2018-02-25T10:05:48.498Z,34112
2018-02-25T10:06:50.035Z,33376
2018-02-25T10:07:51.499Z,31872
2018-02-25T10:08:53.017Z,31168
2018-02-25T10:09:54.470Z,29888
2018-02-25T10:10:56.153Z,29696
2018-02-25T10:11:57.647Z,30560
2018-02-25T10:12:59.048Z,31232
2018-02-25T10:14:00.442Z,31040
2018-02-25T10:15:01.986Z,31680
2018-02-25T10:16:03.389Z,30816
2018-02-25T10:17:04.787Z,31296
2018-02-25T10:18:06.533Z,34080
2018-02-25T10:19:08.206Z,35904
2018-02-25T10:20:09.605Z,36096
2018-02-25T10:21:11.034Z,36640
2018-02-25T10:22:12.436Z,41824
2018-02-25T10:23:14.066Z,51008
2018-02-25T10:24:15.463Z,57824
2018-02-25T10:25:16.861Z,60000
2018-02-25T10:26:18.263Z,59008
2018-02-25T10:27:19.669Z,60160
2018-02-25T10:28:21.076Z,63456
2018-02-25T10:29:22.477Z,60352
2018-02-25T10:30:23.942Z,64544
2018-02-25T10:31:25.345Z,63424
2018-02-25T10:32:26.750Z,55968
2018-02-25T10:33:28.153Z,59712
2018-02-25T10:34:29.684Z,62656
2018-02-25T10:35:31.087Z,60640
2018-02-25T10:36:32.490Z,58560
2018-02-25T10:37:33.889Z,56096
2018-02-25T10:38:35.295Z,56864
2018-02-25T10:39:36.701Z,56576
2018-02-25T10:40:38.105Z,56448
2018-02-25T10:41:39.511Z,55456
2018-02-25T10:42:41.110Z,56096
2018-02-25T10:43:42.512Z,59680
2018-02-25T10:44:43.918Z,59776
2018-02-25T10:45:45.323Z,60448
2018-02-25T10:46:46.904Z,61408
2018-02-25T10:47:48.371Z,59392
2018-02-25T10:48:49.778Z,59328
2018-02-25T10:49:51.186Z,57920
2018-02-25T10:50:52.579Z,61728
2018-02-25T10:51:53.981Z,64352
2018-02-25T10:52:55.384Z,64096
2018-02-25T10:53:56.914Z,66304
2018-02-25T10:54:58.382Z,65536
2018-02-25T10:55:59.800Z,62240
2018-02-25T10:57:01.202Z,61280
2018-02-25T10:58:02.623Z,63168
2018-02-25T10:59:04.078Z,68896
2018-02-25T11:00:05.477Z,69024
2018-02-25T11:01:06.881Z,65760
2018-02-25T11:02:08.301Z,62464
2018-02-25T11:03:09.708Z,61760
2018-02-25T11:04:11.212Z,65568
2018-02-25T11:05:12.593Z,67072
2018-02-25T11:06:14.000Z,68224
2018-02-25T11:07:15.538Z,66976
2018-02-25T11:08:16.939Z,63392
2018-02-25T11:09:18.343Z,61664
2018-02-25T11:10:19.800Z,53888
2018-02-25T11:11:21.362Z,27648
2018-02-25T11:12:22.867Z,11872
2018-02-25T11:13:24.294Z,11452
2018-02-25T11:14:25.907Z,11252
2018-02-25T11:15:27.540Z,11120
2018-02-25T11:16:29.057Z,11036
2018-02-25T11:17:30.449Z,11000
2018-02-25T11:18:32.152Z,11032
2018-02-25T11:19:33.533Z,11044
2018-02-25T11:20:35.196Z,11444
2018-02-25T11:21:36.596Z,12356
2018-02-25T11:22:38.000Z,13220
2018-02-25T11:23:39.684Z,16160
2018-02-25T11:24:41.087Z,43360
2018-02-25T11:25:42.485Z,67296
2018-02-25T11:26:43.891Z,64576
2018-02-25T11:27:45.299Z,57600
2018-02-25T11:28:46.821Z,42784
2018-02-25T11:29:48.440Z,25984
2018-02-25T11:30:49.836Z,13080
2018-02-25T11:31:51.237Z,10920
2018-02-25T11:32:52.636Z,10764
2018-02-25T11:33:54.058Z,10732
2018-02-25T11:34:55.571Z,10788
2018-02-25T11:35:56.982Z,10680
2018-02-25T11:36:58.437Z,10616
2018-02-25T11:38:00.203Z,10592
2018-02-25T11:39:01.741Z,10548
2018-02-25T11:40:03.140Z,10588
2018-02-25T11:41:04.535Z,10572
2018-02-25T11:42:06.086Z,10536
2018-02-25T11:43:07.485Z,10524
2018-02-25T11:44:08.886Z,10496
2018-02-25T11:45:10.349Z,10420
2018-02-25T11:46:11.879Z,10388
2018-02-25T11:47:13.278Z,10352
2018-02-25T11:48:14.680Z,10344
2018-02-25T11:49:16.079Z,10308
2018-02-25T11:50:17.655Z,10264
2018-02-25T11:51:19.050Z,10268
2018-02-25T11:52:20.450Z,10256
2018-02-25T11:53:21.848Z,10252
2018-02-25T11:54:23.245Z,10236
2018-02-25T11:55:24.649Z,10196
2018-02-25T11:56:26.040Z,10180
2018-02-25T11:57:27.580Z,10144
2018-02-25T11:58:28.975Z,10128
2018-02-25T11:59:30.370Z,10124
2018-02-25T12:00:31.801Z,10092
2018-02-25T12:01:33.198Z,10076
2018-02-25T12:02:34.647Z,10056
2018-02-25T12:03:36.008Z,10024
2018-02-25T12:04:37.473Z,9984
2018-02-25T12:05:38.872Z,9976
2018-02-25T12:06:40.268Z,9940
2018-02-25T12:07:41.674Z,9916
2018-02-25T12:08:43.058Z,9900
2018-02-25T12:09:44.449Z,9900
2018-02-25T12:10:45.871Z,9860
2018-02-25T12:11:47.238Z,9804
2018-02-25T12:12:48.661Z,9788
2018-02-25T12:13:50.065Z,9764
2018-02-25T12:14:51.463Z,9700
2018-02-25T12:15:52.855Z,9700
2018-02-25T12:16:54.255Z,9656
2018-02-25T12:17:55.649Z,9596
2018-02-25T12:18:57.037Z,9580
2018-02-25T12:19:58.435Z,9608
2018-02-25T12:20:59.830Z,9564
2018-02-25T12:22:01.232Z,9412
2018-02-25T12:23:02.648Z,9332
2018-02-25T12:24:04.046Z,9312
2018-02-25T12:25:05.436Z,9312
2018-02-25T12:26:06.831Z,9276
2018-02-25T12:27:08.226Z,9264
2018-02-25T12:28:09.619Z,9216
2018-02-25T12:29:11.017Z,9172
2018-02-25T12:30:12.408Z,9140
2018-02-25T12:31:13.825Z,9084
2018-02-25T12:32:15.221Z,9040
2018-02-25T12:33:16.621Z,9024
2018-02-25T12:34:18.015Z,8960
2018-02-25T12:35:19.480Z,8956
2018-02-25T12:36:20.875Z,8896
2018-02-25T12:37:22.266Z,8872
2018-02-25T12:38:23.659Z,8816
2018-02-25T12:39:25.059Z,8768
2018-02-25T12:40:26.454Z,8732
2018-02-25T12:41:27.854Z,8688
2018-02-25T12:42:29.246Z,8652
2018-02-25T12:43:30.645Z,8628
2018-02-25T12:44:32.045Z,8524
2018-02-25T12:45:33.436Z,8524
2018-02-25T12:46:34.829Z,8496
2018-02-25T12:47:36.250Z,8432
2018-02-25T12:48:37.617Z,8400
2018-02-25T12:49:39.012Z,8360
2018-02-25T12:50:40.409Z,8348
2018-02-25T12:51:41.834Z,8264
2018-02-25T12:52:43.224Z,8236
2018-02-25T12:53:44.617Z,8220
2018-02-25T12:54:46.014Z,8120
2018-02-25T12:55:47.409Z,8108
2018-02-25T12:56:48.809Z,8136
2018-02-25T12:57:50.200Z,8104
2018-02-25T12:58:51.594Z,8052
2018-02-25T12:59:53.001Z,8056
2018-02-25T13:00:54.403Z,7992
2018-02-25T13:01:55.794Z,7944
2018-02-25T13:02:57.189Z,7884
2018-02-25T13:03:58.582Z,7864
2018-02-25T13:04:59.975Z,7820
2018-02-25T13:06:01.369Z,7788
2018-02-25T13:07:02.754Z,7768
2018-02-25T13:08:04.154Z,7732
2018-02-25T13:09:05.546Z,7660
2018-02-25T13:10:07.031Z,7604
2018-02-25T13:11:08.452Z,7572
2018-02-25T13:12:09.848Z,7536
2018-02-25T13:13:11.245Z,7452
2018-02-25T13:14:12.636Z,7428
2018-02-25T13:15:14.027Z,7412
2018-02-25T13:16:15.429Z,7296
2018-02-25T13:17:16.824Z,7372
2018-02-25T13:18:18.218Z,7336
2018-02-25T13:19:19.616Z,7296
2018-02-25T13:20:21.030Z,7260
2018-02-25T13:21:22.430Z,7216
2018-02-25T13:22:23.828Z,7196
2018-02-25T13:23:25.222Z,7152
2018-02-25T13:24:26.667Z,7108
2018-02-25T13:25:28.010Z,7040
2018-02-25T13:26:29.403Z,6972
2018-02-25T13:27:30.799Z,6936
2018-02-25T13:28:32.190Z,6872
2018-02-25T13:29:33.585Z,6892
2018-02-25T13:30:34.980Z,6900
2018-02-25T13:31:36.372Z,6900
2018-02-25T13:32:37.768Z,6860
2018-02-25T13:33:39.162Z,6816
2018-02-25T13:34:40.554Z,6804
2018-02-25T13:35:41.948Z,6776
2018-02-25T13:36:43.334Z,6760
2018-02-25T13:37:44.729Z,6664
2018-02-25T13:38:46.130Z,6668
2018-02-25T13:39:47.520Z,6628
2018-02-25T13:40:48.937Z,6644
2018-02-25T13:41:50.373Z,6600
2018-02-25T13:42:51.764Z,6568
2018-02-25T13:43:53.154Z,6520
2018-02-25T13:44:54.551Z,6452
2018-02-25T13:45:55.949Z,6416
2018-02-25T13:46:57.342Z,6452
2018-02-25T13:47:58.774Z,6460
2018-02-25T13:49:00.181Z,6448
2018-02-25T13:50:01.570Z,6388
2018-02-25T13:51:03.111Z,6360
2018-02-25T13:52:04.570Z,6308
2018-02-25T13:53:05.965Z,6288
2018-02-25T13:54:07.356Z,6232
2018-02-25T13:55:08.774Z,6204
2018-02-25T13:56:10.178Z,6212
2018-02-25T13:57:11.642Z,6188
2018-02-25T13:58:13.052Z,6172
2018-02-25T13:59:14.446Z,6152
2018-02-25T14:00:15.861Z,6144
2018-02-25T14:01:17.255Z,6108
2018-02-25T14:02:18.667Z,6132
2018-02-25T14:03:20.057Z,6068
2018-02-25T14:04:21.455Z,6068
2018-02-25T14:05:22.846Z,6016
2018-02-25T14:06:24.247Z,5976
2018-02-25T14:07:25.643Z,5924
2018-02-25T14:08:27.034Z,5872
2018-02-25T14:09:28.430Z,5840
2018-02-25T14:10:29.819Z,5800
2018-02-25T14:11:31.212Z,5776
2018-02-25T14:12:32.603Z,5732
2018-02-25T14:13:33.997Z,5696